Relevés horaires Bierset (Belgique)


Relevés horaires à Bierset - Dimanche 21 Avr. 2019
Heure UTC1 Température [°C] Vent [km/h] Hum. [%] Pres.4 [hPa] Visi. [Km] Nébu. [octa] Préc.5 [mm] Cond.
2m. Res. Ros. Dir.2 Vit. Moy. Raf.3
23:00 16.6 16.6 2.0 NNO 5.6 5.6 18.5 37 1014.1(-1.0/3h) 35 0/8 -- --
22:00 17.1 17.1 2.0 ESE 5.6 5.6 7.4 36 1014.5(-0.5/3h) 35 0/8 -- --
21:00 17.5 17.5 1.1 E 3.7 9.3 16.7 33 1014.8(-0.2/3h) 35 0/8 -- --
20:00 17.0 17.0 3.9 ENE 5.6 7.4 16.7 42 1015.1(-0.4/3h) 35 0/8 -- --
19:00 17.4 17.4 4.3 NE 7.4 9.3 16.7 42 1015(-1.2/3h) 25 0/8 -- --
18:00 19.9 19.9 3.5 NE 9.3 13.0 18.5 34 1014.9(-1.9/3h) 25 0/8 0/12h
--
17:00 21.5 21.5 2.6 NE 9.3 11.1 14.8 29 1015.2(-2.0/3h) 25 0/8 -- --
16:00 22.3 22.3 2.9 NE 11.1 13.0 16.7 28 1015.9(-1.8/3h) 25 0/8 -- --
15:00 22.5 22.5 3.7 NE 11.1 13.0 18.5 29 1016.6(-2.1/3h) 25 0/8 -- --
14:00 22.5 22.5 3.8 NE 13.0 13.0 18.5 29 1017.1(-2.4/3h) 17 0/8 -- --
13:00 23.2 23.2 3.5 NE 7.4 9.3 16.7 28 1017.7(-2.5/3h) 17 0/8 -- --
12:00 22.3 22.3 8.6 NNE 7.4 9.3 13.0 41 1018.7(-2.3/3h) 17 0/8 0/6h
--
11:00 20.8 20.8 7.8 N 5.6 5.6 9.3 43 1019.7(-1.7/3h) 17 0/8 -- --
10:00 19.0 19.0 5.7 N 5.6 5.6 7.4 42 1020.6(-1.0/3h) 17 0/8 -- --
09:00 17.0 17.0 5.5 N 3.7 3.7 5.6 47 1021.4(-0.5/3h) 17 0/8 -- --
08:00 15.6 15.6 4.2 NNE 3.7 3.7 5.6 47 1021.8(-0.4/3h) 17 0/8 -- --
07:00 14.0 14.0 6.5 NE 1.9 3.7 3.7 61 1022(-0.7/3h) 17 0/8 -- --
06:00 10.5 10.5 4.7 SE 1.9 5.6 16.7 67 1022.4(-1.1/3h) 17 0/8 0/12h
--
05:00 9.3 9.3 3.3 ENE 1.9 1.9 3.7 66 1022.6(-1.5/3h) 15 0/8 -- --
04:00 10.4 10.4 4.0 ESE 1.9 1.9 7.4 64 1022.9(-1.6/3h) 20 0/8 -- --
03:00 11.4 11.4 3.5 E 1.9 5.6 16.7 58 1023.4(-1.5/3h) 20 0/8 -- --
02:00 11.9 11.8 3.6 ENE 5.6 5.6 7.4 57 1023.9(-1.4/3h) 20 0/8 -- --
01:00 13.1 13.1 3.7 ENE 3.7 5.6 16.7 53 1024.3(-1.3/3h) 25 0/8 -- --
00:00 13.5 13.5 4.0 NE 5.6 11.1 18.5 53 1024.8(-0.9/3h) 27 0/8 0/6h
0/24h
--

1 Coordinated Universal Time. Actuellement il est 07:00 locale et 05:00 UTC.

2 Le vent souffle depuis la direction indiquée vers la direction oposée.

3 Les rafales max. sont disponible 40 min après l'heure du relevé.

4 Pour les stations d'altitude (plus de 600m) le géopotentiel du niveau le plus proche de la pression obligatoire est indiqué.

5 Les stations disposant d'un diffuseur peuvent indiquer "trace". Cela signifie que des précipitations ont touchés le sol mais que la quantité est inférieure à 0.1 mm.

Récapitulatif de la journée
Température [°C] Vent [km/h] Ensoleillement4 [h] Precipitations totale5 [mm] Pression [Hpa]
Min1 Max.2 Moy.3 Max. Min Max.
9.3 23.2 7.4 18.5 0 h 0 min 0 1014.1 1024.8

1 Température minimale relevée entre 18:00 UTC la veille et 18:00 UTC le jour donné.

2 Température maximale relevée entre 06:00 UTC le jour donné et 06:00 UTC le lendemain.

3 Vent moyen de la journée basé sur les relevés horaires.

4 Ensoleillement en heures relevé entre 06:00 UTC la veille et 06:00 UTC le jour donné.

5 Précipitations totales tombées entre 06:00 UTC la jour donné et 06:00 UTC le lendemain.

Graphiques horaires